Time;durP1;ratioP1;P1;durP2;ratioP2;P2;SDS_P1;SDS_P2;PMS_P1;PMS_P2;Temp;Humidity;BMP_temperature;BMP_pressure;BME280_temperature;BME280_humidity;BME280_pressure;Samples;Min_cycle;Max_cycle;Signal;HPM_P1;HPM_P2
2022/02/17 00:01:07;;;;;;;1.20;0.90;;;;;;;9.92;52.74;97213.83;218200;1288;139631;-64
2022/02/17 00:06:11;;;;;;;3.00;0.60;;;;;;;9.97;53.05;97196.83;219401;1288;141436;-60
2022/02/17 00:11:14;;;;;;;0.80;0.50;;;;;;;10.01;52.95;97179.77;219361;1288;139188;-60
2022/02/17 00:16:17;;;;;;;1.20;0.80;;;;;;;10.07;52.77;97175.63;219382;1288;139228;-59
2022/02/17 00:21:20;;;;;;;1.20;0.60;;;;;;;10.11;52.66;97170.55;219191;1288;138830;-59
2022/02/17 00:26:23;;;;;;;0.60;0.40;;;;;;;10.13;53.02;97154.55;219095;1288;140634;-60
2022/02/17 00:31:26;;;;;;;0.90;0.60;;;;;;;10.16;52.82;97115.52;219397;1287;139248;-60
2022/02/17 00:36:28;;;;;;;0.80;0.50;;;;;;;10.19;53.00;97084.02;219087;1288;139199;-60
2022/02/17 00:41:32;;;;;;;1.70;0.60;;;;;;;10.21;52.88;97073.38;219262;1288;138857;-62
2022/02/17 00:46:35;;;;;;;0.70;0.50;;;;;;;10.22;53.36;97066.77;219287;1288;138775;-65
2022/02/17 00:51:38;;;;;;;0.70;0.40;;;;;;;10.21;52.98;97078.33;219143;1286;139661;-63
2022/02/17 00:56:41;;;;;;;0.50;0.50;;;;;;;10.20;53.18;97090.70;219331;1288;139508;-63
2022/02/17 01:01:46;;;;;;;1.70;0.80;;;;;;;10.23;53.23;97084.38;218956;1288;139175;-63
2022/02/17 01:06:50;;;;;;;1.30;0.70;;;;;;;10.24;53.57;97073.10;219368;1288;139155;-61
2022/02/17 01:11:55;;;;;;;1.00;0.50;;;;;;;10.29;53.69;97072.15;219316;1288;139182;-63
2022/02/17 01:16:58;;;;;;;1.20;0.50;;;;;;;10.32;53.51;97068.14;219329;1287;138505;-59
2022/02/17 01:22:03;;;;;;;0.60;0.50;;;;;;;10.33;53.49;97072.84;219235;1288;140584;-62
2022/02/17 01:27:07;;;;;;;1.30;0.60;;;;;;;10.34;53.66;97069.91;219381;1288;141981;-62
2022/02/17 01:32:10;;;;;;;1.00;0.60;;;;;;;10.36;54.00;97049.66;219064;1288;139142;-61
2022/02/17 01:37:15;;;;;;;1.10;0.50;;;;;;;10.37;54.13;97017.66;219310;1289;139149;-63
2022/02/17 01:42:18;;;;;;;1.70;0.70;;;;;;;10.36;54.09;96989.79;218734;1289;139244;-60
2022/02/17 01:47:23;;;;;;;2.00;0.80;;;;;;;10.37;54.19;96993.40;219259;1288;139625;-60
2022/02/17 01:52:26;;;;;;;1.30;0.90;;;;;;;10.33;54.24;96964.39;219396;1287;139227;-61
2022/02/17 01:57:31;;;;;;;1.50;0.80;;;;;;;10.33;54.41;96940.13;218700;1290;138713;-58
2022/02/17 02:02:37;;;;;;;1.30;0.80;;;;;;;10.36;54.85;96926.11;218959;1288;139456;-61
2022/02/17 02:07:42;;;;;;;2.10;0.90;;;;;;;10.42;54.54;96920.59;218833;1289;139659;-61
2022/02/17 02:12:55;;;;;;;0.70;0.60;;;;;;;10.45;54.81;96933.52;218980;1289;139648;-61
2022/02/17 02:18:12;;;;;;;0.80;0.60;;;;;;;10.42;55.50;96911.58;219110;1289;139184;-60
2022/02/17 02:23:15;;;;;;;1.10;0.80;;;;;;;10.39;55.72;96893.98;219351;1288;138977;-63
2022/02/17 02:28:25;;;;;;;1.10;0.80;;;;;;;10.38;56.05;96882.34;218899;1289;139495;-61
2022/02/17 02:33:28;;;;;;;1.40;0.80;;;;;;;10.39;56.12;96853.54;219164;1289;138949;-61
2022/02/17 02:38:31;;;;;;;2.30;1.00;;;;;;;10.43;56.31;96841.63;219349;1289;139434;-60
2022/02/17 02:43:36;;;;;;;1.30;1.00;;;;;;;10.48;56.47;96816.20;218917;1288;139809;-60
2022/02/17 02:48:41;;;;;;;1.00;0.80;;;;;;;10.52;56.12;96799.66;219085;1289;139479;-61
2022/02/17 02:53:48;;;;;;;;;;;;;;;10.52;56.54;96800.69;219281;1289;138947;-63
2022/02/17 02:58:51;;;;;;;1.80;0.80;;;;;;;10.47;56.56;96797.16;219388;1288;125208;-60
2022/02/17 03:03:54;;;;;;;1.30;0.90;;;;;;;10.43;56.92;96800.37;219165;1288;138808;-60
2022/02/17 03:08:57;;;;;;;2.80;0.90;;;;;;;10.42;57.35;96802.22;219187;1288;139627;-62
2022/02/17 03:14:03;;;;;;;1.40;0.90;;;;;;;10.41;57.70;96789.18;219044;1288;139809;-64
2022/02/17 03:19:08;;;;;;;1.30;0.80;;;;;;;10.36;58.45;96791.23;219196;1288;139765;-64
2022/02/17 03:24:10;;;;;;;1.90;0.90;;;;;;;10.27;58.76;96759.90;219289;1288;138921;-60
2022/02/17 03:29:16;;;;;;;;;;;;;;;10.20;59.16;96743.92;219225;1289;139103;-61
2022/02/17 03:34:21;;;;;;;1.40;0.90;;;;;;;10.11;59.63;96723.89;218816;1289;125691;-63
2022/02/17 03:39:24;;;;;;;0.80;0.70;;;;;;;10.02;60.11;96714.66;218714;1290;138817;-61
2022/02/17 03:44:30;;;;;;;1.30;1.10;;;;;;;9.99;60.19;96690.17;219240;1287;139435;-58
2022/02/17 03:49:49;;;;;;;4.60;2.70;;;;;;;10.04;60.87;96668.92;219099;1289;139128;-60
2022/02/17 03:54:52;;;;;;;1.40;0.80;;;;;;;10.14;60.97;96634.66;218954;1289;139238;-62
2022/02/17 03:59:56;;;;;;;0.80;0.70;;;;;;;10.12;60.89;96630.23;219260;1288;139330;-64
2022/02/17 04:04:59;;;;;;;1.20;0.80;;;;;;;10.09;61.06;96617.91;218954;1289;140368;-61
2022/02/17 04:10:03;;;;;;;1.00;0.70;;;;;;;10.10;61.31;96595.70;219225;1288;139574;-61
2022/02/17 04:15:09;;;;;;;0.80;0.60;;;;;;;10.12;61.43;96591.38;219210;1287;139021;-61
2022/02/17 04:20:13;;;;;;;3.00;1.80;;;;;;;10.21;61.56;96598.31;218799;1289;139235;-62
2022/02/17 04:25:45;;;;;;;0.80;0.40;;;;;;;10.37;61.51;96597.14;218448;1289;139262;-62
2022/02/17 04:30:57;;;;;;;0.60;0.40;;;;;;;10.43;61.35;96606.80;219147;1289;140476;-62
2022/02/17 04:36:02;;;;;;;0.80;0.40;;;;;;;10.49;61.31;96610.40;219034;1289;139139;-61
2022/02/17 04:46:34;;;;;;;0.50;0.20;;;;;;;10.63;61.08;96578.13;218966;1289;184230;-62
2022/02/17 04:51:37;;;;;;;2.40;0.50;;;;;;;10.69;60.93;96569.92;219016;1289;138853;-59
2022/02/17 04:56:40;;;;;;;1.00;0.40;;;;;;;10.76;60.99;96574.85;219254;1289;139992;-59
2022/02/17 05:01:44;;;;;;;0.60;0.20;;;;;;;10.81;60.59;96572.92;219042;1289;139519;-61
2022/02/17 05:07:21;;;;;;;0.70;0.40;;;;;;;10.86;60.76;96562.80;218754;1287;139366;-60
2022/02/17 05:12:25;;;;;;;1.50;0.50;;;;;;;10.95;60.83;96556.77;218980;1289;139378;-62
2022/02/17 05:17:29;;;;;;;1.40;0.40;;;;;;;11.04;60.80;96533.30;219115;1289;139325;-63
2022/02/17 05:22:32;;;;;;;0.90;0.30;;;;;;;11.10;60.19;96515.62;219285;1288;139294;-61
2022/02/17 05:27:42;;;;;;;4.10;0.60;;;;;;;11.15;60.34;96501.69;219214;1289;138695;-61
2022/02/17 05:33:17;;;;;;;0.70;0.40;;;;;;;11.20;59.94;96506.16;218985;1286;140105;-61
2022/02/17 05:38:35;;;;;;;0.70;0.30;;;;;;;11.23;60.02;96498.17;219189;1289;138864;-65
2022/02/17 05:43:51;;;;;;;0.50;0.30;;;;;;;11.25;59.97;96485.02;218979;1289;138818;-61
2022/02/17 05:48:55;;;;;;;0.70;0.50;;;;;;;11.27;60.01;96485.96;219139;1289;138913;-62
2022/02/17 05:53:57;;;;;;;1.00;0.40;;;;;;;11.33;59.52;96490.86;219304;1289;139432;-62
2022/02/17 05:59:00;;;;;;;3.50;0.60;;;;;;;11.35;59.74;96475.86;219296;1288;139815;-63
2022/02/17 06:04:03;;;;;;;0.50;0.30;;;;;;;11.36;59.40;96459.29;218866;1288;138546;-60
2022/02/17 06:09:07;;;;;;;0.30;0.30;;;;;;;11.35;59.75;96442.23;219294;1287;139883;-64
2022/02/17 06:14:10;;;;;;;0.90;0.50;;;;;;;11.33;59.84;96436.30;219313;1287;139105;-62
2022/02/17 06:19:13;;;;;;;2.30;0.60;;;;;;;11.35;59.96;96427.63;219010;1289;139613;-60
2022/02/17 06:24:16;;;;;;;1.30;0.60;;;;;;;11.35;60.13;96404.70;219279;1287;140718;-61
2022/02/17 06:29:19;;;;;;;1.40;0.50;;;;;;;11.33;59.97;96417.07;219144;1289;139293;-64
2022/02/17 06:34:23;;;;;;;2.10;0.50;;;;;;;11.33;60.01;96406.22;219191;1288;139529;-59
2022/02/17 06:39:26;;;;;;;0.50;0.30;;;;;;;11.36;59.88;96381.03;219062;1289;139279;-60
2022/02/17 06:44:29;;;;;;;0.30;0.30;;;;;;;11.39;59.98;96373.41;219276;1286;139033;-62
2022/02/17 06:49:34;;;;;;;1.00;0.50;;;;;;;11.38;59.99;96360.58;219249;1288;139076;-62
2022/02/17 06:54:37;;;;;;;0.70;0.50;;;;;;;11.37;60.20;96354.11;219182;1289;138958;-61
2022/02/17 06:59:40;;;;;;;1.70;0.40;;;;;;;11.32;60.26;96354.40;219249;1288;138799;-62
2022/02/17 07:04:43;;;;;;;1.30;0.50;;;;;;;11.30;60.28;96342.02;219235;1288;139353;-59
2022/02/17 07:09:47;;;;;;;0.60;0.40;;;;;;;11.31;60.45;96313.73;219148;1288;140488;-60
2022/02/17 07:14:52;;;;;;;0.80;0.60;;;;;;;11.33;60.24;96300.78;219161;1288;139668;-62
2022/02/17 07:19:55;;;;;;;0.70;0.50;;;;;;;11.32;60.29;96269.77;219179;1288;140123;-62
2022/02/17 07:24:58;;;;;;;0.70;0.50;;;;;;;11.31;60.87;96270.30;219104;1288;138838;-63
2022/02/17 07:30:01;;;;;;;4.40;0.50;;;;;;;11.30;60.73;96260.45;219189;1287;139815;-63
2022/02/17 07:35:04;;;;;;;1.20;0.60;;;;;;;11.34;60.65;96252.40;218936;1289;139590;-63
2022/02/17 07:40:09;;;;;;;1.00;0.40;;;;;;;11.46;60.95;96215.59;219080;1288;139067;-61
2022/02/17 07:45:13;;;;;;;0.80;0.60;;;;;;;11.53;61.25;96205.85;219258;1288;138900;-62
2022/02/17 07:50:18;;;;;;;0.80;0.60;;;;;;;11.55;60.81;96210.41;218859;1288;138806;-62
2022/02/17 07:55:24;;;;;;;2.10;0.90;;;;;;;11.55;60.89;96260.02;219074;1288;139389;-62
2022/02/17 08:00:28;;;;;;;1.10;0.50;;;;;;;11.49;60.53;96460.77;218790;1288;139010;-60
2022/02/17 08:05:31;;;;;;;3.80;0.70;;;;;;;11.04;58.87;96529.42;219157;1288;139384;-61
2022/02/17 08:10:36;;;;;;;6.10;0.90;;;;;;;10.24;58.24;96574.48;218847;1288;139263;-62
2022/02/17 08:15:41;;;;;;;2.70;0.50;;;;;;;9.31;58.04;96565.02;219128;1288;139085;-62
2022/02/17 08:20:45;;;;;;;1.40;0.50;;;;;;;8.74;59.24;96600.30;218908;1288;139509;-59
2022/02/17 08:25:48;;;;;;;1.30;0.60;;;;;;;8.44;59.72;96626.48;219006;1288;138991;-59
2022/02/17 08:30:51;;;;;;;1.30;0.70;;;;;;;8.12;60.16;96642.21;218697;1288;138400;-57
2022/02/17 08:35:58;;;;;;;0.90;0.50;;;;;;;7.87;60.52;96692.19;218619;1290;139057;-60
2022/02/17 08:41:01;;;;;;;1.00;0.40;;;;;;;7.60;60.73;96768.63;218947;1286;139505;-59
2022/02/17 08:46:05;;;;;;;2.00;1.00;;;;;;;7.42;61.17;96809.38;219013;1288;139074;-60
2022/02/17 08:51:08;;;;;;;2.30;0.80;;;;;;;7.22;61.09;96823.18;219251;1288;139062;-60
2022/02/17 08:56:11;;;;;;;1.70;0.80;;;;;;;7.08;61.77;96802.55;218982;1289;138972;-60
2022/02/17 09:01:14;;;;;;;1.60;0.90;;;;;;;6.97;61.89;96786.40;219374;1287;138585;-60
2022/02/17 09:06:17;;;;;;;2.60;1.10;;;;;;;6.97;62.43;96726.29;219407;1286;139141;-62
2022/02/17 09:11:22;;;;;;;2.80;1.10;;;;;;;7.02;62.77;96665.73;219094;1289;138961;-62
2022/02/17 09:16:25;;;;;;;1.20;0.80;;;;;;;7.07;62.77;96657.86;219027;1288;139740;-60
2022/02/17 09:21:28;;;;;;;1.60;0.90;;;;;;;7.15;63.25;96658.05;219466;1285;138614;-64
2022/02/17 09:26:32;;;;;;;1.40;0.80;;;;;;;7.20;63.41;96653.07;219117;1288;138491;-61
2022/02/17 09:31:35;;;;;;;3.10;1.40;;;;;;;7.21;63.62;96663.58;219219;1288;139226;-59
2022/02/17 09:36:39;;;;;;;2.20;1.20;;;;;;;7.28;63.94;96695.42;219135;1288;139439;-59
2022/02/17 09:41:43;;;;;;;3.00;1.40;;;;;;;7.37;64.09;96739.78;219246;1287;139477;-63
2022/02/17 09:46:47;;;;;;;4.10;1.20;;;;;;;7.40;64.05;96791.71;219138;1286;138877;-61
2022/02/17 09:51:52;;;;;;;4.80;1.90;;;;;;;7.38;64.21;96792.28;218910;1287;139333;-62
2022/02/17 09:56:55;;;;;;;2.40;1.10;;;;;;;7.31;64.04;96763.56;219417;1287;139675;-60
2022/02/17 10:02:02;;;;;;;2.90;1.50;;;;;;;7.30;64.37;96756.05;219291;1287;139690;-61
2022/02/17 10:07:10;;;;;;;3.60;1.40;;;;;;;7.36;64.45;96751.48;219192;1287;138907;-61
2022/02/17 10:12:15;;;;;;;4.70;1.90;;;;;;;7.45;64.45;96739.95;218799;1287;139437;-57
2022/02/17 10:17:19;;;;;;;5.50;2.20;;;;;;;7.49;64.51;96723.59;219174;1287;140851;-57
2022/02/17 10:22:29;;;;;;;2.50;1.30;;;;;;;7.62;64.68;96725.79;219309;1287;139065;-61
2022/02/17 10:27:33;;;;;;;7.00;2.10;;;;;;;7.77;64.49;96726.77;219229;1286;138816;-61
2022/02/17 10:32:50;;;;;;;5.10;1.60;;;;;;;7.85;64.47;96705.21;219136;1289;138939;-61
2022/02/17 10:37:57;;;;;;;4.20;2.00;;;;;;;7.93;64.46;96703.17;219509;1277;138824;-58
2022/02/17 10:43:09;;;;;;;64.30;38.20;;;;;;;8.06;64.43;96681.60;219711;1287;139047;-56
2022/02/17 10:48:23;;;;;;;8.10;3.70;;;;;;;8.16;64.43;96675.95;219569;1287;140601;-59
2022/02/17 10:53:27;;;;;;;3.70;1.90;;;;;;;8.24;64.11;96670.80;219398;1287;139916;-59
2022/02/17 10:58:32;;;;;;;5.40;2.10;;;;;;;8.26;64.01;96674.85;219529;1286;138920;-59
2022/02/17 11:03:38;;;;;;;3.60;2.10;;;;;;;8.22;64.06;96663.23;219817;1286;139408;-58
2022/02/17 11:08:44;;;;;;;4.20;1.90;;;;;;;8.25;64.06;96649.72;219545;1287;140926;-59
2022/02/17 11:13:50;;;;;;;3.40;1.90;;;;;;;8.49;64.49;96625.34;219434;1286;139656;-57
2022/02/17 11:18:55;;;;;;;14.70;7.90;;;;;;;8.72;64.23;96613.45;219437;1287;139613;-57
2022/02/17 11:24:02;;;;;;;6.80;2.50;;;;;;;8.89;63.89;96605.16;219404;1286;140051;-55
2022/02/17 11:29:24;;;;;;;4.60;2.20;;;;;;;9.00;63.79;96607.97;219098;1289;139299;-57
2022/02/17 11:34:41;;;;;;;6.10;1.50;;;;;;;9.24;63.63;96598.80;219283;1287;139000;-59
2022/02/17 11:39:57;;;;;;;6.10;1.60;;;;;;;9.43;63.19;96603.80;219662;1286;138862;-57
2022/02/17 11:45:23;;;;;;;3.90;1.50;;;;;;;9.65;62.81;96589.88;219429;1286;139594;-60
2022/02/17 11:50:57;;;;;;;3.80;1.30;;;;;;;9.91;62.58;96607.14;219490;1287;139186;-58
2022/02/17 11:56:06;;;;;;;3.10;1.40;;;;;;;10.03;61.96;96619.58;219519;1287;138875;-58
2022/02/17 12:01:33;;;;;;;4.20;1.80;;;;;;;10.07;61.62;96622.77;219458;1287;138941;-58
2022/02/17 12:06:47;;;;;;;4.60;1.70;;;;;;;10.11;61.49;96613.64;219482;1286;138527;-57
2022/02/17 12:11:53;;;;;;;5.10;1.70;;;;;;;10.14;61.04;96597.62;219164;1287;139883;-59
2022/02/17 12:17:02;;;;;;;5.40;1.60;;;;;;;10.17;60.72;96614.27;219556;1287;139417;-59
2022/02/17 12:22:15;;;;;;;6.50;1.50;;;;;;;10.28;60.75;96628.48;219179;1289;139810;-56
2022/02/17 12:27:21;;;;;;;2.50;1.40;;;;;;;10.33;60.26;96621.58;219022;1288;139440;-57
2022/02/17 12:32:24;;;;;;;8.70;2.20;;;;;;;10.39;59.94;96635.84;219061;1287;139169;-58
2022/02/17 12:37:27;;;;;;;6.70;1.90;;;;;;;10.54;60.24;96629.39;218988;1287;139163;-58
2022/02/17 12:42:40;;;;;;;5.90;1.60;;;;;;;10.73;59.94;96628.27;219538;1286;139429;-59
2022/02/17 12:47:44;;;;;;;5.30;1.30;;;;;;;10.90;59.56;96626.98;219570;1287;139532;-58
2022/02/17 12:52:51;;;;;;;4.40;1.50;;;;;;;11.02;59.53;96622.20;219381;1287;138955;-59
2022/02/17 12:57:54;;;;;;;6.00;1.70;;;;;;;11.10;58.62;96634.05;219331;1287;139185;-58
2022/02/17 13:02:57;;;;;;;7.60;2.00;;;;;;;11.05;58.15;96634.13;218997;1287;139803;-59
2022/02/17 13:08:01;;;;;;;8.10;1.90;;;;;;;10.99;58.06;96633.16;219581;1287;138856;-59
2022/02/17 13:13:05;;;;;;;4.30;1.50;;;;;;;10.87;57.55;96650.02;219276;1287;139071;-58
2022/02/17 13:18:08;;;;;;;6.40;1.60;;;;;;;10.76;57.45;96660.58;219306;1287;139696;-58
2022/02/17 13:23:23;;;;;;;7.50;4.30;;;;;;;10.66;57.11;96666.02;219137;1288;139042;-59
2022/02/17 13:28:26;;;;;;;12.40;2.40;;;;;;;10.62;57.08;96675.98;219088;1289;139526;-57
2022/02/17 13:33:29;;;;;;;4.50;1.60;;;;;;;10.79;56.85;96677.47;219278;1287;139005;-58
2022/02/17 13:38:33;;;;;;;4.20;1.70;;;;;;;10.90;56.25;96689.67;219358;1287;139595;-58
2022/02/17 13:43:48;;;;;;;3.70;1.50;;;;;;;11.28;56.07;96706.02;219102;1287;139360;-58
2022/02/17 13:48:52;;;;;;;3.40;1.40;;;;;;;11.44;54.83;96685.87;219213;1287;138507;-58
2022/02/17 13:53:58;;;;;;;4.00;1.30;;;;;;;11.43;53.49;96696.45;219572;1287;140771;-58
2022/02/17 13:59:02;;;;;;;2.00;1.00;;;;;;;11.36;52.58;96708.73;219561;1287;139635;-59
2022/02/17 14:04:10;;;;;;;6.10;1.40;;;;;;;11.26;51.67;96722.23;219207;1287;139463;-58
2022/02/17 14:09:13;;;;;;;5.70;1.80;;;;;;;11.13;51.73;96724.58;219477;1286;139126;-59
2022/02/17 14:14:17;;;;;;;5.60;1.50;;;;;;;11.03;52.09;96727.67;219338;1287;139392;-57
2022/02/17 14:19:20;;;;;;;5.10;1.40;;;;;;;10.91;52.29;96734.73;219607;1287;138782;-57
2022/02/17 14:24:23;;;;;;;7.20;1.60;;;;;;;10.82;52.31;96740.50;219615;1285;139788;-57
2022/02/17 14:29:26;;;;;;;4.70;1.90;;;;;;;10.70;52.49;96734.59;219609;1287;139148;-57
2022/02/17 14:34:29;;;;;;;4.70;1.70;;;;;;;10.60;52.94;96731.66;219535;1287;139542;-56
2022/02/17 14:39:32;;;;;;;4.60;2.00;;;;;;;10.53;52.65;96740.35;219633;1286;139898;-58
2022/02/17 14:44:35;;;;;;;7.90;2.30;;;;;;;10.46;52.86;96751.27;219190;1289;139060;-57
2022/02/17 14:49:38;;;;;;;4.00;1.90;;;;;;;10.44;52.79;96762.30;218676;1287;139854;-57
2022/02/17 14:54:41;;;;;;;7.60;2.20;;;;;;;10.39;53.03;96771.81;219485;1287;140626;-57
2022/02/17 14:59:44;;;;;;;4.80;2.40;;;;;;;10.36;52.98;96781.39;219481;1286;139058;-58
2022/02/17 15:04:47;;;;;;;5.20;1.80;;;;;;;10.34;52.63;96783.02;219536;1287;233818;-58
2022/02/17 15:09:50;;;;;;;3.70;1.30;;;;;;;10.35;52.06;96797.23;219688;1286;139014;-58
2022/02/17 15:14:54;;;;;;;5.10;1.30;;;;;;;10.37;51.69;96794.16;219585;1285;139160;-58
2022/02/17 15:24:50;;;;;;;3.50;1.10;;;;;;;10.36;51.09;96831.20;230603;1235;635782;-57
2022/02/17 15:29:53;;;;;;;5.60;1.00;;;;;;;10.26;50.62;96835.55;233282;1222;137647;-58
2022/02/17 15:34:57;;;;;;;4.60;1.30;;;;;;;10.16;50.90;96847.06;232919;1223;138126;-58
2022/02/17 15:40:01;;;;;;;6.20;1.40;;;;;;;10.05;51.20;96855.73;233400;1222;138558;-57
2022/02/17 15:45:05;;;;;;;4.20;1.70;;;;;;;9.95;51.18;96873.89;233351;1222;138040;-57
2022/02/17 15:50:09;;;;;;;6.10;1.60;;;;;;;9.86;51.81;96900.74;233315;1221;138167;-58
2022/02/17 15:55:13;;;;;;;3.80;1.50;;;;;;;9.70;51.01;96901.31;233312;1221;137873;-58
2022/02/17 16:00:17;;;;;;;4.20;1.30;;;;;;;9.61;50.95;96891.76;233420;1222;137270;-56
2022/02/17 16:05:21;;;;;;;6.90;1.60;;;;;;;9.59;50.75;96898.63;233284;1223;137730;-59
2022/02/17 16:10:28;;;;;;;5.40;1.70;;;;;;;9.62;50.61;96915.67;233169;1223;138147;-58
2022/02/17 16:15:32;;;;;;;4.80;1.70;;;;;;;9.62;50.62;96932.84;233307;1223;138028;-58
2022/02/17 16:20:35;;;;;;;4.80;1.30;;;;;;;9.59;50.91;96941.52;233188;1224;138057;-58
2022/02/17 16:25:39;;;;;;;5.30;1.70;;;;;;;9.55;50.84;96930.89;233234;1223;138559;-58
2022/02/17 16:30:43;;;;;;;6.10;2.30;;;;;;;9.57;51.06;96948.22;233102;1223;138098;-58
2022/02/17 16:35:46;;;;;;;3.40;1.30;;;;;;;9.58;51.00;96970.41;233113;1223;138357;-57
2022/02/17 16:40:50;;;;;;;5.00;1.50;;;;;;;9.56;51.03;96982.45;233191;1223;138434;-58
2022/02/17 16:45:55;;;;;;;3.50;1.50;;;;;;;9.53;50.82;96999.73;233438;1222;137531;-58
2022/02/17 16:50:58;;;;;;;4.00;1.40;;;;;;;9.50;50.71;97007.27;233344;1223;138286;-61
2022/02/17 16:56:01;;;;;;;5.20;2.10;;;;;;;9.45;50.62;97034.44;233147;1222;139044;-56
2022/02/17 17:01:09;;;;;;;5.60;1.40;;;;;;;9.41;50.34;97039.72;233199;1223;138672;-59
2022/02/17 17:06:13;;;;;;;8.40;1.80;;;;;;;9.38;50.03;97039.67;232913;1223;138461;-55
2022/02/17 17:11:16;;;;;;;6.30;1.50;;;;;;;9.35;50.15;97052.71;232944;1223;137883;-58
2022/02/17 17:16:19;;;;;;;7.60;1.30;;;;;;;9.31;50.03;97079.40;233613;1220;137678;-57
2022/02/17 17:21:22;;;;;;;5.90;1.60;;;;;;;9.21;50.41;97102.73;233510;1219;137906;-58
2022/02/17 17:26:26;;;;;;;3.70;1.50;;;;;;;9.00;50.85;97112.23;233303;1220;137918;-59
2022/02/17 17:31:31;;;;;;;6.80;2.70;;;;;;;8.77;51.40;97126.90;233500;1220;137998;-59
2022/02/17 17:36:36;;;;;;;8.40;4.00;;;;;;;8.55;51.77;97141.90;233445;1220;137812;-58
2022/02/17 17:41:42;;;;;;;4.20;1.50;;;;;;;8.39;52.44;97168.66;233752;1217;138393;-59
2022/02/17 17:46:46;;;;;;;6.30;2.20;;;;;;;8.18;53.14;97192.09;233660;1220;139306;-58
2022/02/17 17:51:49;;;;;;;5.00;2.00;;;;;;;7.97;53.62;97187.09;233845;1219;138473;-59
2022/02/17 17:56:52;;;;;;;5.80;1.90;;;;;;;7.88;53.87;97168.42;233534;1220;137191;-58
2022/02/17 18:01:56;;;;;;;6.70;2.50;;;;;;;7.89;53.82;97158.25;233605;1219;139967;-59
2022/02/17 18:06:59;;;;;;;8.80;1.50;;;;;;;8.01;53.38;97205.15;233486;1219;138051;-58
2022/02/17 18:12:08;;;;;;;5.40;1.40;;;;;;;8.06;53.32;97215.80;233650;1217;137927;-58
2022/02/17 18:17:11;;;;;;;5.20;1.50;;;;;;;8.04;53.09;97232.40;233611;1219;138239;-58
2022/02/17 18:22:14;;;;;;;3.80;1.70;;;;;;;7.99;53.11;97241.99;233681;1219;138242;-58
2022/02/17 18:27:22;;;;;;;4.20;1.30;;;;;;;7.99;53.47;97272.23;233731;1218;138328;-58
2022/02/17 18:32:25;;;;;;;3.50;1.60;;;;;;;7.91;54.04;97298.13;233803;1217;138736;-57
2022/02/17 18:37:28;;;;;;;4.00;1.50;;;;;;;7.74;54.52;97304.38;233576;1219;138337;-59
2022/02/17 18:42:31;;;;;;;4.60;2.00;;;;;;;7.61;55.07;97311.59;233784;1217;138196;-58
2022/02/17 18:47:34;;;;;;;4.70;1.90;;;;;;;7.52;55.39;97314.77;233658;1219;138362;-58
2022/02/17 18:52:37;;;;;;;6.90;2.20;;;;;;;7.47;55.38;97310.89;233636;1219;138409;-56
2022/02/17 18:57:42;;;;;;;4.30;1.70;;;;;;;7.50;55.60;97325.83;233784;1217;138446;-58
2022/02/17 19:02:45;;;;;;;5.30;1.90;;;;;;;7.51;55.37;97346.21;233531;1220;137836;-58
2022/02/17 19:07:52;;;;;;;6.10;1.90;;;;;;;7.51;55.54;97379.44;233450;1219;138869;-58
2022/02/17 19:12:55;;;;;;;45.50;28.50;;;;;;;7.52;55.86;97417.82;233664;1218;139624;-60
2022/02/17 19:18:00;;;;;;;9.00;3.50;;;;;;;7.57;56.34;97430.99;233719;1217;139467;-60
2022/02/17 19:23:04;;;;;;;11.10;3.00;;;;;;;7.25;56.29;97426.84;233676;1217;138301;-59
2022/02/17 19:28:08;;;;;;;4.40;2.10;;;;;;;7.08;57.13;97420.02;233885;1217;137503;-59
2022/02/17 19:33:11;;;;;;;4.30;1.50;;;;;;;6.96;57.32;97420.60;233647;1219;137907;-61
2022/02/17 19:38:16;;;;;;;6.90;1.80;;;;;;;6.88;57.54;97414.23;233697;1217;138373;-61
2022/02/17 19:43:20;;;;;;;3.70;1.60;;;;;;;6.87;57.68;97425.48;233829;1217;137378;-56
2022/02/17 19:48:25;;;;;;;4.70;1.90;;;;;;;6.89;57.56;97425.70;233656;1217;138189;-59
2022/02/17 19:53:28;;;;;;;3.90;1.50;;;;;;;6.96;57.77;97448.27;233642;1219;138511;-60
2022/02/17 19:58:32;;;;;;;6.20;2.00;;;;;;;7.02;57.78;97466.13;233676;1219;138388;-59
2022/02/17 20:03:35;;;;;;;4.40;2.10;;;;;;;7.03;57.76;97489.87;233719;1219;138023;-58
2022/02/17 20:08:39;;;;;;;5.90;2.30;;;;;;;7.00;57.79;97506.65;233146;1217;138996;-59
2022/02/17 20:13:42;;;;;;;7.60;2.20;;;;;;;6.96;58.22;97504.70;233637;1217;138472;-59
2022/02/17 20:18:45;;;;;;;6.10;2.10;;;;;;;6.81;58.17;97498.13;233628;1219;138740;-58
2022/02/17 20:24:01;;;;;;;6.40;2.50;;;;;;;6.71;58.43;97496.58;233738;1219;137462;-59
2022/02/17 20:29:07;;;;;;;6.90;2.30;;;;;;;6.62;58.35;97499.83;233627;1220;138817;-56
2022/02/17 20:34:11;;;;;;;7.20;2.10;;;;;;;6.55;58.37;97509.70;233876;1218;137913;-59
2022/02/17 20:39:14;;;;;;;9.30;2.60;;;;;;;6.46;58.01;97522.12;233727;1217;138075;-58
2022/02/17 20:55:03;;;;;;;9.10;2.70;;;;;;;6.38;58.17;97584.11;233651;1219;138026;-59
2022/02/17 21:00:08;;;;;;;8.20;2.20;;;;;;;6.37;58.58;97591.61;233535;1219;138012;-58
2022/02/17 21:05:11;;;;;;;9.30;2.70;;;;;;;6.33;58.30;97598.74;233766;1218;138237;-57
2022/02/17 21:10:17;;;;;;;7.60;2.30;;;;;;;6.27;58.39;97606.20;233842;1219;138944;-57
2022/02/17 21:15:22;;;;;;;7.30;2.00;;;;;;;6.28;58.45;97621.85;233782;1217;138245;-56
2022/02/17 21:20:25;;;;;;;5.40;1.50;;;;;;;6.29;58.35;97634.45;233713;1217;137700;-57
2022/02/17 21:25:28;;;;;;;5.90;1.80;;;;;;;6.32;58.39;97646.25;233722;1220;137795;-59
2022/02/17 21:30:31;;;;;;;7.00;2.00;;;;;;;6.33;58.05;97654.25;233775;1219;138758;-57
2022/02/17 21:35:36;;;;;;;6.70;2.50;;;;;;;6.36;58.05;97656.34;233630;1219;137674;-57
2022/02/17 21:40:40;;;;;;;5.80;2.10;;;;;;;6.31;58.50;97668.27;233692;1219;138303;-58
2022/02/17 21:45:46;;;;;;;10.90;2.40;;;;;;;6.26;58.33;97675.66;233849;1219;138183;-58
2022/02/17 21:50:51;;;;;;;4.60;1.70;;;;;;;6.27;58.54;97677.56;233745;1220;138304;-58
2022/02/17 21:55:56;;;;;;;6.90;2.70;;;;;;;6.24;58.48;97695.86;233592;1220;139277;-58
2022/02/17 22:01:03;;;;;;;8.30;2.30;;;;;;;6.25;58.46;97708.69;233668;1219;138165;-58
2022/02/17 22:06:06;;;;;;;7.70;1.90;;;;;;;6.23;58.57;97718.30;233773;1219;138183;-58
2022/02/17 22:11:09;;;;;;;5.40;2.10;;;;;;;6.19;58.56;97722.61;233829;1218;137955;-57
2022/02/17 22:16:12;;;;;;;5.20;2.20;;;;;;;6.16;58.64;97722.44;233922;1219;138061;-58
2022/02/17 22:21:16;;;;;;;6.20;2.20;;;;;;;6.14;58.53;97731.96;233686;1217;138562;-58
2022/02/17 22:26:19;;;;;;;26.30;9.70;;;;;;;6.15;59.00;97736.77;233700;1217;138843;-59
2022/02/17 22:31:23;;;;;;;9.40;3.00;;;;;;;6.17;58.63;97742.35;233792;1218;138343;-58
2022/02/17 22:36:26;;;;;;;7.20;2.50;;;;;;;6.14;58.52;97746.20;233840;1217;138075;-58
2022/02/17 22:41:29;;;;;;;7.50;2.40;;;;;;;6.15;58.73;97753.36;233751;1218;137954;-57
2022/02/17 22:46:33;;;;;;;7.10;2.30;;;;;;;6.17;58.70;97755.55;233772;1217;138677;-57
2022/02/17 22:51:36;;;;;;;6.70;2.60;;;;;;;6.19;58.75;97754.88;233819;1219;138431;-57
2022/02/17 22:56:41;;;;;;;5.60;2.10;;;;;;;6.24;58.54;97759.33;233801;1220;139072;-57
2022/02/17 23:01:44;;;;;;;10.80;3.20;;;;;;;6.27;58.51;97764.35;233787;1217;138102;-59
2022/02/17 23:06:49;;;;;;;9.00;2.90;;;;;;;6.28;58.44;97766.78;233833;1215;137943;-58
2022/02/17 23:11:52;;;;;;;9.90;2.60;;;;;;;6.29;57.99;97776.05;233778;1217;139634;-58
2022/02/17 23:22:16;;;;;;;6.80;2.70;;;;;;;6.39;57.70;97785.96;233877;1218;138305;-59
2022/02/17 23:27:19;;;;;;;9.10;3.30;;;;;;;6.40;57.35;97803.90;233754;1219;137732;-58
2022/02/17 23:32:22;;;;;;;11.30;3.20;;;;;;;6.41;57.51;97803.46;233722;1218;138865;-57
2022/02/17 23:37:25;;;;;;;9.00;2.80;;;;;;;6.38;57.37;97802.39;233812;1217;137996;-57
2022/02/17 23:42:29;;;;;;;11.60;3.40;;;;;;;6.42;57.01;97808.16;233777;1219;139777;-57
2022/02/17 23:47:32;;;;;;;12.20;3.40;;;;;;;6.48;57.20;97811.65;233820;1219;138982;-57
2022/02/17 23:52:35;;;;;;;14.60;3.60;;;;;;;6.51;56.67;97815.28;233796;1217;138653;-59
2022/02/17 23:57:38;;;;;;;8.00;3.10;;;;;;;6.55;56.69;97824.40;233882;1217;138474;-59
